Quick Links (Output Below):   Max & Min Temps   /   Climate Reports   /   Zone Forecasts
River Forecasts   /   Forestry Forecasts   /   Aviation Forecasts   /   Radars   /   Features

Terminal Aerodrome Forecast (Fort Smith)

Pick a Site:
Arkadelphia | El Dorado | Fayetteville | Fort Smith | Harrison | Highfill | Hot Springs | Jonesboro
Little Rock | Monticello | Mountain Home | Pine Bluff | Texarkana
 Forecast 

KFSM 270520Z 2706/2806 00000KT P6SM VCTS SCT060CB BKN120
     FM270900 VRB03KT P6SM BKN080
     FM271200 VRB03KT P6SM VCTS SCT050CB BKN250
     FM271600 VRB05KT P6SM SCT050 BKN250
     FM272200 VRB05KT P6SM VCTS SCT050CB BKN250=


 Latest METARs (Observations) 
How to Decode METARs
05Z KFSM 270453Z AUTO 28012KT 10SM VCTS FEW050 SCT065 BKN110 28/21
         A3011 RMK AO2 LTG DSNT ALQDS SLP189 T02780206
         
04Z KFSM 270353Z AUTO 00000KT 10SM SCT120 28/23 A3007 RMK AO2 LTG DSNT
         N-SE SLP175 T02830233
         
03Z KFSM 270253Z 10003KT 10SM BKN055 29/23 A3006 RMK AO2 SLP172
         T02890233 53021
         
02Z KFSM 270153Z 10004KT 10SM SCT060 29/23 A3002 RMK AO2 SLP161
         T02940233
         
01Z KFSM 270053Z 14005KT 10SM SCT060 31/23 A3001 RMK AO2 SLP154
         T03110228
         
00Z KFSM 262353Z 10004KT 10SM FEW060 FEW075 33/22 A3000 RMK AO2 SLP151
         T03330217 10361 20306 55012
         
***** Today's Observations (Above) *****


23Z KFSM 262253Z 16006KT 10SM FEW060 FEW075 32/22 A2999 RMK AO2 SLP150
         T03220222
         
22Z KFSM 262153Z 13011KT 10SM BKN050 32/22 A3002 RMK AO2 SLP160
         T03170217
         
21Z KFSM 262053Z 27011KT 10SM BKN050 BKN070 34/21 A3003 RMK AO2 SLP162
         T03390206 56017
         
20Z KFSM 261953Z COR 27010KT 10SM SCT050 36/21 A3004 RMK AO2 SLP164
         T03560211
         
***** Yesterday's Observations (Above) *****


Back to Main Page
http://www.srh.noaa.gov/lzk/qfcst.php

USA.gov is the U.S. government's official web portal to all federal, state and local government web resources and services.